Vadito, NM

6:01 PM MDT on August 04, 2015 (GMT -0600)
Bell Mountain Ranch | | Change Station
CLOSE
Current Station
Personal Weather Station
Location: Vadito, NM
Elevation: 7660 ft
Nearby Weather Stations

Elev 7660 ft 36.19 °N, 105.66 °W | Updated 1 minute ago

Partly Cloudy
Partly Cloudy
79.3 °F
Feels Like 78 °F
N
7.6
Wind Variable Wind from West
Gusts 8.3 mph

Today
High -- | Low -- °F
--% Chance of Precip.
Yesterday
High -- | Low -- °F
Precip. -- in
6:11 AM 8:05 PM
Waning Gibbous, 73% visible
Pressure 30.35 in
Visibility 10.0 miles
Clouds Clear
Heat Index 78 °F
Dew Point 35 °F
Humidity 20%
Rainfall 0.00 in
Snow Depth Not available.
UV 2 out of 12
Pollen 4.80 out of 12
Air Quality Not available.
Flu Activity Not available.
METAR KAXX 042355Z AUTO 29011G19KT 10SM CLR 23/03 A3035 RMK AO2 T02300030 10237 20209

More Conditions Fewer Conditions

Pressure 30.35 in
Visibility 10.0 miles
Clouds Clear
Heat Index 78 °F
Dew Point 35 °F
Humidity 20%
Rainfall 0.00 in
Snow Depth Not available.
UV 2 out of 12
Pollen 4.80 out of 12
Air Quality Not available.
Flu Activity Not available.
METAR KAXX 042355Z AUTO 29011G19KT 10SM CLR 23/03 A3035 RMK AO2 T02300030 10237 20209

More Conditions Fewer Conditions

10-Day Weather Forecast

×

Almanac

Astronomy

Aug. 04, 2015 Rise Set
Actual Time
Civil Twilight
Nautical Twilight
Astronomical Twilight
Moon
Length of Visible Light
Length of Day
Tomorrow will be .
, % of the Moon is Illuminated

Today's Extremes

State Highs State Lows

Community

WunderPhotos

Upload Photos

1,844,024 photos uploaded!

WunderBlogs® & News

Nearby

Air Quality

  Air Quality AQ Index Pollutant
Not available.

Snow Depth

Station Depth Elevation

Earthquake Activity

City Distance Mag. Time & Date
Minimum magnitude displayed is 2.5.

Coastal Water Temperatures

Place Temperature

Stations

Nearby Weather Stations

Station Location Temp. Windchill Dew Point Humidity Wind Precip. Elev Updated Type